createdAt,value
2018-02-17T10:11:35.374Z,15.57
2018-02-17T10:14:05.474Z,15.53
2018-02-17T10:16:35.508Z,15.47
2018-02-17T10:19:05.785Z,13.97
2018-02-17T10:21:32.552Z,14.27
2018-02-17T10:23:59.142Z,13.17
2018-02-17T10:26:25.759Z,12.57
2018-02-17T10:28:56.926Z,15.17
2018-02-17T10:31:27.469Z,14.23
2018-02-17T10:34:02.367Z,23.50
2018-02-17T10:36:28.964Z,14.40
2018-02-17T10:38:56.712Z,17.30
2018-02-17T10:41:23.337Z,14.43
2018-02-17T10:43:50.386Z,17.40
2018-02-17T10:46:17.998Z,14.57
2018-02-17T10:48:46.720Z,13.30
2018-02-17T10:51:13.752Z,14.50
2018-02-17T10:53:40.368Z,14.33
2018-02-17T10:56:06.997Z,20.70
2018-02-17T10:58:33.691Z,19.63
2018-02-17T11:01:02.746Z,15.13
2018-02-17T11:03:29.365Z,17.87
2018-02-17T11:06:03.270Z,16.40
2018-02-17T11:08:30.317Z,16.80
2018-02-17T11:11:16.180Z,15.83
2018-02-17T11:13:44.724Z,17.53
2018-02-17T11:16:16.842Z,15.07
2018-02-17T11:18:45.510Z,15.30
2018-02-17T11:21:12.504Z,15.53
2018-02-17T11:23:53.490Z,17.20
2018-02-17T11:26:20.122Z,17.23
2018-02-17T11:28:46.716Z,17.87
2018-02-17T11:31:13.330Z,15.63
2018-02-17T11:33:40.334Z,18.43
2018-02-17T11:36:06.974Z,18.60
2018-02-17T11:38:52.709Z,14.70
2018-02-17T11:41:19.352Z,15.83
2018-02-17T11:43:46.366Z,14.13
2018-02-17T11:46:14.076Z,14.53
2018-02-17T11:48:42.687Z,14.40
2018-02-17T11:51:09.346Z,14.20
2018-02-17T11:53:35.997Z,11.77
2018-02-17T11:56:15.048Z,13.10
2018-02-17T11:59:01.376Z,13.77
2018-02-17T12:01:28.885Z,13.30
2018-02-17T12:03:55.953Z,11.97
2018-02-17T12:06:23.242Z,13.37
2018-02-17T12:08:50.031Z,13.60
2018-02-17T12:11:24.106Z,14.17
2018-02-17T12:13:50.934Z,14.37
2018-02-17T12:16:17.850Z,14.63
2018-02-17T12:18:44.680Z,14.83
2018-02-17T12:21:12.091Z,16.27
2018-02-17T12:23:39.032Z,13.33
2018-02-17T12:26:05.820Z,13.90
2018-02-17T12:28:32.653Z,13.50
2018-02-17T12:31:03.250Z,14.67
2018-02-17T12:33:30.126Z,14.33
2018-02-17T12:35:57.287Z,16.80
2018-02-17T12:38:35.305Z,17.67
2018-02-17T12:41:02.134Z,16.40
2018-02-17T12:43:29.045Z,14.77
2018-02-17T12:45:55.924Z,15.77
2018-02-17T12:48:23.035Z,15.40
2018-02-17T12:51:04.116Z,14.77
2018-02-17T12:53:30.989Z,12.67
2018-02-17T12:55:58.320Z,12.87
2018-02-17T12:58:25.211Z,11.93
2018-02-17T13:00:52.094Z,10.40
2018-02-17T13:03:18.861Z,12.20
2018-02-17T13:05:45.767Z,10.73
2018-02-17T13:08:12.596Z,12.20
2018-02-17T13:10:39.444Z,11.07
2018-02-17T13:13:06.837Z,11.83
2018-02-17T13:15:35.335Z,10.50
2018-02-17T13:18:04.191Z,9.87
2018-02-17T13:20:31.149Z,9.97
2018-02-17T13:22:57.950Z,11.40
2018-02-17T13:25:24.763Z,9.87
2018-02-17T13:27:51.542Z,10.27
2018-02-17T13:30:18.466Z,10.77
2018-02-17T13:32:47.246Z,10.77
2018-02-17T13:35:14.023Z,15.03
2018-02-17T13:37:40.844Z,11.87
2018-02-17T13:40:07.941Z,10.57
2018-02-17T13:42:36.067Z,12.57
2018-02-17T13:45:03.034Z,11.00
2018-02-17T13:47:29.597Z,9.93
2018-02-17T13:49:56.194Z,10.43
2018-02-17T13:52:28.536Z,11.77
2018-02-17T13:54:55.084Z,11.00
2018-02-17T14:00:19.494Z,11.00
2018-02-17T14:02:46.545Z,10.10
2018-02-17T14:05:13.075Z,9.93
2018-02-17T14:07:40.084Z,10.07
2018-02-17T14:10:07.178Z,8.83
2018-02-17T14:12:34.139Z,9.33
2018-02-17T14:15:00.757Z,8.90
2018-02-17T14:17:27.831Z,8.17
2018-02-17T14:19:54.473Z,10.03
2018-02-17T14:22:33.517Z,9.57
2018-02-17T14:25:00.072Z,10.13
2018-02-17T14:27:26.623Z,10.27
2018-02-17T14:29:53.260Z,10.57
2018-02-17T14:32:25.014Z,11.37
2018-02-17T14:34:51.569Z,10.03
2018-02-17T14:37:18.554Z,12.33
2018-02-17T14:39:45.100Z,9.33
2018-02-17T14:42:11.710Z,8.20
2018-02-17T14:44:38.258Z,10.00
2018-02-17T14:47:05.225Z,9.87
2018-02-17T14:49:31.826Z,15.57
2018-02-17T14:52:00.326Z,10.77
2018-02-17T14:54:26.932Z,14.63
2018-02-17T14:57:04.448Z,11.87
2018-02-17T14:59:31.040Z,15.20
2018-02-17T15:01:57.593Z,14.90
2018-02-17T15:04:24.586Z,13.03
2018-02-17T15:06:51.140Z,10.90
2018-02-17T15:09:17.705Z,13.93
2018-02-17T15:11:44.314Z,10.90
2018-02-17T15:14:10.865Z,11.47
2018-02-17T15:16:37.446Z,16.43
2018-02-17T15:19:04.044Z,17.67
2018-02-17T15:21:30.592Z,13.83
2018-02-17T15:23:57.242Z,15.10
2018-02-17T15:26:39.129Z,14.87
2018-02-17T15:29:05.706Z,10.97
2018-02-17T15:31:32.282Z,17.83
2018-02-17T15:33:58.877Z,15.57
2018-02-17T15:36:30.886Z,14.27
2018-02-17T15:38:57.461Z,16.90
2018-02-17T15:41:24.026Z,15.33
2018-02-17T15:43:50.595Z,14.60
2018-02-17T15:46:36.222Z,13.67
2018-02-17T15:49:02.808Z,14.10
2018-02-17T15:51:29.421Z,14.27
2018-02-17T15:53:55.971Z,17.63
2018-02-17T15:56:28.679Z,14.53
2018-02-17T15:58:55.234Z,12.73
2018-02-17T16:01:22.179Z,16.73
2018-02-17T16:03:55.021Z,18.87
2018-02-17T16:06:21.602Z,13.00
2018-02-17T16:08:48.595Z,13.57
2018-02-17T16:11:15.144Z,16.27
2018-02-17T16:13:41.710Z,15.27
2018-02-17T16:16:08.708Z,13.50
2018-02-17T16:18:35.266Z,13.60
2018-02-17T16:21:01.863Z,22.63
2018-02-17T16:23:45.576Z,14.83
2018-02-17T16:26:12.591Z,15.60
2018-02-17T16:28:46.902Z,15.57
2018-02-17T16:31:15.376Z,14.07
2018-02-17T16:34:00.835Z,20.70
2018-02-17T16:36:27.421Z,15.10
2018-02-17T16:38:53.958Z,20.87
2018-02-17T16:41:20.510Z,15.13
2018-02-17T16:43:47.442Z,16.30
2018-02-17T16:46:14.064Z,15.57
2018-02-17T16:48:46.918Z,18.10
2018-02-17T16:51:18.186Z,15.93
2018-02-17T16:53:45.577Z,15.60
2018-02-17T16:56:12.533Z,17.07
2018-02-17T16:58:39.522Z,17.60
2018-02-17T17:01:30.501Z,17.20
2018-02-17T17:03:58.086Z,16.87
2018-02-17T17:06:24.690Z,17.20
2018-02-17T17:08:51.267Z,18.93
2018-02-17T17:11:22.328Z,17.60
2018-02-17T17:13:49.055Z,18.23
2018-02-17T17:16:16.704Z,17.37
2018-02-17T17:18:53.712Z,18.07
2018-02-17T17:21:24.705Z,17.47
2018-02-17T17:23:51.342Z,17.67
2018-02-17T17:26:17.975Z,18.70
2018-02-17T17:28:45.614Z,17.57
2018-02-17T17:31:14.694Z,17.33
2018-02-17T17:33:41.318Z,16.23
2018-02-17T17:36:09.104Z,17.30
2018-02-17T17:38:37.740Z,17.43
2018-02-17T17:41:05.439Z,16.60
2018-02-17T17:43:32.065Z,16.47
2018-02-17T17:45:58.800Z,18.13
2018-02-17T17:48:27.463Z,16.67
2018-02-17T17:50:54.085Z,16.67
2018-02-17T17:53:20.848Z,17.30
2018-02-17T17:55:47.518Z,16.10
2018-02-17T17:58:14.178Z,17.10
2018-02-17T18:00:42.169Z,15.53
2018-02-17T18:03:09.087Z,14.87
2018-02-17T18:05:35.700Z,16.87
2018-02-17T18:08:02.262Z,16.27
2018-02-17T18:10:28.979Z,15.00
2018-02-17T18:12:57.672Z,15.57
2018-02-17T18:15:24.309Z,15.57
2018-02-17T18:17:50.944Z,16.83
2018-02-17T18:20:17.600Z,15.80
2018-02-17T18:22:44.626Z,16.57
2018-02-17T18:25:14.972Z,15.97
2018-02-17T18:27:42.955Z,16.70
2018-02-17T18:30:10.013Z,16.87
2018-02-17T18:32:36.974Z,15.77
2018-02-17T18:35:03.510Z,15.83
2018-02-17T18:37:30.129Z,16.53
2018-02-17T18:39:56.769Z,16.07
2018-02-17T18:42:30.030Z,16.87
2018-02-17T18:44:56.614Z,16.63
2018-02-17T18:47:23.158Z,17.23
2018-02-17T18:49:49.842Z,15.50
2018-02-17T18:52:16.448Z,16.43
2018-02-17T18:55:02.495Z,16.97
2018-02-17T18:57:29.466Z,16.03
2018-02-17T18:59:58.146Z,16.93
2018-02-17T19:02:24.845Z,15.43
2018-02-17T19:04:51.412Z,15.47
2018-02-17T19:07:18.361Z,16.67
2018-02-17T19:09:45.341Z,16.37
2018-02-17T19:12:17.719Z,17.03
2018-02-17T19:17:36.201Z,16.33
2018-02-17T19:20:02.769Z,14.90
2018-02-17T19:22:29.370Z,14.77
2018-02-17T19:27:48.676Z,16.33
2018-02-17T19:30:15.262Z,16.40
2018-02-17T19:32:47.362Z,16.30
2018-02-17T19:35:13.923Z,15.53
2018-02-17T19:37:40.541Z,16.33
2018-02-17T19:40:11.587Z,15.17
2018-02-17T19:42:38.141Z,14.80
2018-02-17T19:45:04.760Z,15.23
2018-02-17T19:47:31.322Z,15.47
2018-02-17T19:49:58.297Z,14.03
2018-02-17T19:52:24.992Z,15.77
2018-02-17T19:54:57.481Z,15.37
2018-02-17T19:57:27.621Z,14.43
2018-02-17T19:59:54.164Z,12.63
2018-02-17T20:02:20.758Z,13.77
2018-02-17T20:04:47.409Z,12.43
2018-02-17T20:07:17.821Z,13.63
2018-02-17T20:10:04.041Z,13.90
2018-02-17T20:12:31.024Z,13.53
2018-02-17T20:14:57.603Z,13.43
2018-02-17T20:17:24.194Z,13.47
2018-02-17T20:19:50.771Z,13.77
2018-02-17T20:22:17.413Z,12.03
2018-02-17T20:25:03.283Z,13.00
2018-02-17T20:27:46.555Z,12.13
2018-02-17T20:30:13.545Z,11.73
2018-02-17T20:32:54.622Z,11.33
2018-02-17T20:35:21.321Z,11.93
2018-02-17T20:37:48.282Z,13.80
2018-02-17T20:40:14.849Z,14.50
2018-02-17T20:42:41.435Z,13.47
2018-02-17T20:45:07.990Z,13.10
2018-02-17T20:47:34.564Z,12.80
2018-02-17T20:50:01.279Z,13.33
2018-02-17T20:52:31.429Z,13.07
2018-02-17T20:54:58.026Z,12.13
2018-02-17T20:57:25.008Z,13.70
2018-02-17T20:59:51.562Z,13.27
2018-02-17T21:02:24.942Z,12.87
2018-02-17T21:04:51.524Z,12.93
2018-02-17T21:07:22.238Z,11.63
2018-02-17T21:09:48.844Z,12.60
2018-02-17T21:12:15.438Z,13.23
2018-02-17T21:14:42.371Z,13.07
2018-02-17T21:17:09.327Z,12.53
2018-02-17T21:19:36.320Z,12.07
2018-02-17T21:24:58.761Z,10.63
2018-02-17T21:27:37.756Z,10.67
2018-02-17T21:30:04.745Z,12.17
2018-02-17T21:32:31.311Z,10.87
2018-02-17T21:34:57.891Z,10.23
2018-02-17T21:37:24.499Z,11.63
2018-02-17T21:39:51.046Z,12.20
2018-02-17T21:42:17.994Z,11.83
2018-02-17T21:44:44.967Z,11.00
2018-02-17T21:47:11.503Z,12.77
2018-02-17T21:49:38.123Z,13.77
2018-02-17T21:52:05.096Z,12.40
2018-02-17T21:54:31.665Z,11.80
2018-02-17T21:56:58.242Z,10.07
2018-02-17T21:59:25.248Z,12.60
2018-02-17T22:01:52.227Z,11.97
2018-02-17T22:04:19.205Z,11.17
2018-02-17T22:06:45.824Z,11.63
2018-02-17T22:09:17.080Z,11.07
2018-02-17T22:11:45.647Z,11.83
2018-02-17T22:14:24.814Z,12.10
2018-02-17T22:16:51.379Z,12.40
2018-02-17T22:19:17.990Z,12.33
2018-02-17T22:21:44.537Z,11.90
2018-02-17T22:24:21.755Z,12.57
2018-02-17T22:26:48.337Z,13.00
2018-02-17T22:29:16.891Z,11.20
2018-02-17T22:34:35.546Z,11.10
2018-02-17T22:37:02.126Z,13.30
2018-02-17T22:39:28.677Z,12.47
2018-02-17T22:45:07.296Z,14.07
2018-02-17T22:47:33.849Z,11.90
2018-02-17T22:50:00.417Z,12.30
2018-02-17T22:52:26.988Z,12.83
2018-02-17T22:54:53.933Z,12.83
2018-02-17T22:57:20.589Z,13.07
2018-02-17T22:59:47.150Z,12.17
2018-02-17T23:02:13.734Z,14.20
2018-02-17T23:04:40.707Z,14.07
2018-02-17T23:07:07.251Z,13.00
2018-02-17T23:09:34.217Z,14.57
2018-02-17T23:12:00.823Z,13.83
2018-02-17T23:14:27.391Z,11.50
2018-02-17T23:16:55.879Z,12.90
2018-02-17T23:19:22.512Z,12.80
2018-02-17T23:21:49.109Z,11.20
2018-02-17T23:24:16.599Z,13.90
2018-02-17T23:26:43.194Z,11.23
2018-02-17T23:29:10.168Z,12.27
2018-02-17T23:31:36.764Z,11.93
2018-02-17T23:34:03.307Z,13.17
2018-02-17T23:36:30.319Z,11.37
2018-02-17T23:39:00.288Z,11.30
2018-02-17T23:41:26.882Z,11.17
2018-02-17T23:43:53.457Z,11.13
2018-02-17T23:46:20.489Z,11.73
2018-02-17T23:48:47.518Z,11.00
2018-02-17T23:51:14.264Z,11.37
2018-02-17T23:53:47.589Z,12.87
2018-02-17T23:56:14.654Z,11.43
2018-02-17T23:58:41.211Z,10.50
